FDB1937 OMDB-OIIE
Flight info
| Callsign | FDB1937 |
|---|---|
| Flight time | 1h 49m |
| Altitude | 37000 |
| Route | DAVMO M318 GABKO M317 RADEB M318 ASMUK/N0453F360 W32 ROVAD/N0416F280 G208 RADAL |
| Aircraft | B38M/M-SDE1FGHILORVWXY/HB1 |
Departure
| Time | 2026-04-22 22:43 |
|---|---|
| Airport | Dubai International Airport (OMDB) |
Arrival
| Time | 2026-04-23 00:33 |
|---|---|
| Airport | Imam Khomeini International Airport (OIIE) |
| Time | Latitude | Longitude | Altitude | Speed | Heading |
|---|---|---|---|---|---|
| 2026-04-22 22:07 | 25.26661 | 55.35422 | 25 ft | 0 kts | 31° |
| 2026-04-22 22:30 | 25.26659 | 55.35420 | 24 ft | 3 kts | 31° |
| 2026-04-22 22:30 | 25.26636 | 55.35405 | 25 ft | 4 kts | 31° |
| 2026-04-22 22:30 | 25.26617 | 55.35393 | 24 ft | 4 kts | 38° |
| 2026-04-22 22:30 | 25.26603 | 55.35372 | 30 ft | 4 kts | 91° |
| 2026-04-22 22:31 | 25.26611 | 55.35348 | 26 ft | 4 kts | 122° |
| 2026-04-22 22:31 | 25.26618 | 55.35335 | 25 ft | 0 kts | 122° |
| 2026-04-22 22:36 | 25.26617 | 55.35338 | 29 ft | 2 kts | 122° |
| 2026-04-22 22:36 | 25.26593 | 55.35379 | 26 ft | 12 kts | 122° |
| 2026-04-22 22:36 | 25.26533 | 55.35487 | 27 ft | 17 kts | 122° |
| 2026-04-22 22:36 | 25.26470 | 55.35600 | 25 ft | 18 kts | 122° |
| 2026-04-22 22:37 | 25.26399 | 55.35725 | 25 ft | 20 kts | 122° |
| 2026-04-22 22:37 | 25.26325 | 55.35857 | 26 ft | 19 kts | 122° |
| 2026-04-22 22:37 | 25.26255 | 55.35982 | 26 ft | 19 kts | 122° |
| 2026-04-22 22:37 | 25.26180 | 55.36115 | 25 ft | 21 kts | 122° |
| 2026-04-22 22:38 | 25.26106 | 55.36246 | 25 ft | 20 kts | 122° |
| 2026-04-22 22:38 | 25.26033 | 55.36376 | 24 ft | 21 kts | 122° |
| 2026-04-22 22:38 | 25.25959 | 55.36509 | 27 ft | 18 kts | 122° |
| 2026-04-22 22:38 | 25.25889 | 55.36598 | 24 ft | 14 kts | 168° |
| 2026-04-22 22:39 | 25.25801 | 55.36617 | 29 ft | 14 kts | 131° |
| 2026-04-22 22:39 | 25.25744 | 55.36717 | 25 ft | 17 kts | 122° |
| 2026-04-22 22:39 | 25.25680 | 55.36829 | 25 ft | 18 kts | 122° |
| 2026-04-22 22:39 | 25.25610 | 55.36955 | 24 ft | 20 kts | 121° |
| 2026-04-22 22:40 | 25.25535 | 55.37087 | 26 ft | 20 kts | 122° |
| 2026-04-22 22:40 | 25.25457 | 55.37227 | 24 ft | 22 kts | 122° |
| 2026-04-22 22:40 | 25.25380 | 55.37363 | 28 ft | 20 kts | 122° |
| 2026-04-22 22:40 | 25.25306 | 55.37495 | 27 ft | 20 kts | 122° |
| 2026-04-22 22:41 | 25.25231 | 55.37630 | 27 ft | 22 kts | 122° |
| 2026-04-22 22:41 | 25.25149 | 55.37773 | 25 ft | 22 kts | 122° |
| 2026-04-22 22:41 | 25.25069 | 55.37917 | 25 ft | 18 kts | 121° |
| 2026-04-22 22:41 | 25.25002 | 55.38036 | 26 ft | 18 kts | 122° |
| 2026-04-22 22:42 | 25.24924 | 55.38121 | 24 ft | 13 kts | 182° |
| 2026-04-22 22:42 | 25.24842 | 55.38074 | 27 ft | 13 kts | 211° |
| 2026-04-22 22:42 | 25.24815 | 55.38012 | 27 ft | 10 kts | 300° |
| 2026-04-22 22:42 | 25.24889 | 55.37878 | 28 ft | 49 kts | 301° |
| 2026-04-22 22:43 | 25.25198 | 55.37321 | 30 ft | 118 kts | 302° |
| 2026-04-22 22:43 | 25.25735 | 55.36366 | 50 ft | 169 kts | 304° |
| 2026-04-22 22:43 | 25.26374 | 55.35227 | 577 ft | 178 kts | 303° |
| 2026-04-22 22:43 | 25.27034 | 55.34033 | 1224 ft | 184 kts | 303° |
| 2026-04-22 22:44 | 25.27721 | 55.32800 | 1921 ft | 194 kts | 304° |
| 2026-04-22 22:44 | 25.28461 | 55.31483 | 2627 ft | 212 kts | 304° |
| 2026-04-22 22:44 | 25.29353 | 55.30093 | 3327 ft | 230 kts | 317° |
| 2026-04-22 22:44 | 25.30768 | 55.29269 | 4181 ft | 238 kts | 351° |
| 2026-04-22 22:45 | 25.32444 | 55.29289 | 5171 ft | 242 kts | 4° |
| 2026-04-22 22:45 | 25.34155 | 55.29435 | 6072 ft | 252 kts | 1° |
| 2026-04-22 22:45 | 25.35952 | 55.29541 | 6727 ft | 264 kts | 0° |
| 2026-04-22 22:45 | 25.37784 | 55.29633 | 7608 ft | 266 kts | 4° |
| 2026-04-22 22:46 | 25.39614 | 55.30241 | 8242 ft | 288 kts | 31° |
| 2026-04-22 22:46 | 25.41271 | 55.31601 | 8901 ft | 305 kts | 36° |
| 2026-04-22 22:46 | 25.43043 | 55.32972 | 9735 ft | 313 kts | 34° |
| 2026-04-22 22:46 | 25.44854 | 55.34347 | 10577 ft | 322 kts | 33° |
| 2026-04-22 22:47 | 25.46764 | 55.35780 | 11124 ft | 340 kts | 33° |
| 2026-04-22 22:47 | 25.48763 | 55.37271 | 11774 ft | 352 kts | 33° |
| 2026-04-22 22:47 | 25.50809 | 55.38799 | 12642 ft | 356 kts | 32° |
| 2026-04-22 22:47 | 25.52871 | 55.40340 | 13494 ft | 361 kts | 32° |
| 2026-04-22 22:48 | 25.54949 | 55.41893 | 14181 ft | 368 kts | 31° |
| 2026-04-22 22:48 | 25.57088 | 55.43493 | 14573 ft | 372 kts | 31° |
| 2026-04-22 22:48 | 25.59229 | 55.45095 | 14707 ft | 371 kts | 31° |
| 2026-04-22 22:48 | 25.61371 | 55.46699 | 14762 ft | 371 kts | 31° |
| 2026-04-22 22:49 | 25.63510 | 55.48301 | 14766 ft | 371 kts | 31° |
| 2026-04-22 22:49 | 25.65654 | 55.49907 | 14906 ft | 374 kts | 31° |
| 2026-04-22 22:49 | 25.67806 | 55.51519 | 15724 ft | 373 kts | 31° |
| 2026-04-22 22:49 | 25.69964 | 55.53138 | 16477 ft | 377 kts | 31° |
| 2026-04-22 22:50 | 25.72151 | 55.54779 | 17183 ft | 381 kts | 31° |
| 2026-04-22 22:50 | 25.74360 | 55.56438 | 17915 ft | 385 kts | 31° |
| 2026-04-22 22:50 | 25.76588 | 55.58110 | 18537 ft | 389 kts | 31° |
| 2026-04-22 22:50 | 25.78836 | 55.59800 | 19140 ft | 392 kts | 31° |
| 2026-04-22 22:51 | 25.81107 | 55.61507 | 19735 ft | 396 kts | 31° |
| 2026-04-22 22:51 | 25.83400 | 55.63232 | 20321 ft | 400 kts | 31° |
| 2026-04-22 22:51 | 25.85726 | 55.64957 | 20880 ft | 404 kts | 29° |
| 2026-04-22 22:51 | 25.88116 | 55.66637 | 21419 ft | 408 kts | 29° |
| 2026-04-22 22:52 | 25.90521 | 55.68335 | 21989 ft | 412 kts | 29° |
| 2026-04-22 22:52 | 25.92951 | 55.70055 | 22561 ft | 416 kts | 29° |
| 2026-04-22 22:52 | 25.95398 | 55.71789 | 23104 ft | 420 kts | 29° |
| 2026-04-22 22:52 | 25.97871 | 55.73544 | 23603 ft | 423 kts | 29° |
| 2026-04-22 22:53 | 26.00358 | 55.75308 | 24079 ft | 426 kts | 29° |
| 2026-04-22 22:53 | 26.02862 | 55.77087 | 24571 ft | 428 kts | 29° |
| 2026-04-22 22:53 | 26.05471 | 55.78669 | 25018 ft | 425 kts | 16° |
| 2026-04-22 22:53 | 26.08318 | 55.79383 | 25479 ft | 418 kts | 359° |
| 2026-04-22 22:54 | 26.11214 | 55.79352 | 25882 ft | 418 kts | 353° |
| 2026-04-22 22:54 | 26.14128 | 55.79203 | 26324 ft | 420 kts | 352° |
| 2026-04-22 22:54 | 26.17053 | 55.79015 | 26795 ft | 422 kts | 352° |
| 2026-04-22 22:54 | 26.20000 | 55.79003 | 27228 ft | 430 kts | 4° |
| 2026-04-22 22:55 | 26.22949 | 55.79633 | 27721 ft | 432 kts | 6° |
| 2026-04-22 22:55 | 26.25916 | 55.80228 | 28125 ft | 435 kts | 6° |
| 2026-04-22 22:55 | 26.31895 | 55.81459 | 29008 ft | 439 kts | 6° |
| 2026-04-22 22:56 | 26.34905 | 55.82087 | 29428 ft | 441 kts | 6° |
| 2026-04-22 22:56 | 26.37934 | 55.82719 | 29842 ft | 443 kts | 6° |
| 2026-04-22 22:56 | 26.40971 | 55.83353 | 30204 ft | 446 kts | 6° |
| 2026-04-22 22:56 | 26.44028 | 55.83992 | 30531 ft | 448 kts | 6° |
| 2026-04-22 22:57 | 26.47098 | 55.84635 | 30869 ft | 450 kts | 5° |
| 2026-04-22 22:57 | 26.50184 | 55.85281 | 31208 ft | 452 kts | 5° |
| 2026-04-22 22:57 | 26.53245 | 55.85922 | 31537 ft | 454 kts | 5° |
| 2026-04-22 22:57 | 26.56399 | 55.86583 | 31871 ft | 456 kts | 5° |
| 2026-04-22 22:58 | 26.59486 | 55.87231 | 32196 ft | 458 kts | 4° |
| 2026-04-22 22:58 | 26.62632 | 55.87891 | 32521 ft | 461 kts | 4° |
| 2026-04-22 22:58 | 26.65780 | 55.88552 | 32916 ft | 461 kts | 4° |
| 2026-04-22 22:58 | 26.68974 | 55.89223 | 33365 ft | 460 kts | 4° |
| 2026-04-22 22:59 | 26.72072 | 55.89874 | 33811 ft | 459 kts | 3° |
| 2026-04-22 22:59 | 26.75205 | 55.90531 | 34207 ft | 457 kts | 2° |
| 2026-04-22 22:59 | 26.78328 | 55.90936 | 34595 ft | 450 kts | 358° |
| 2026-04-22 22:59 | 26.81437 | 55.91283 | 34964 ft | 449 kts | 358° |
| 2026-04-22 23:00 | 26.84538 | 55.91649 | 35339 ft | 447 kts | 358° |
| 2026-04-22 23:00 | 26.87625 | 55.92025 | 35689 ft | 447 kts | 358° |
| 2026-04-22 23:00 | 26.90713 | 55.92405 | 35791 ft | 446 kts | 358° |
| 2026-04-22 23:00 | 26.93781 | 55.92785 | 35800 ft | 442 kts | 357° |
| 2026-04-22 23:01 | 26.99895 | 55.93542 | 35789 ft | 443 kts | 357° |
| 2026-04-22 23:01 | 27.06024 | 55.94302 | 35795 ft | 443 kts | 357° |
| 2026-04-22 23:02 | 27.12165 | 55.95065 | 35792 ft | 444 kts | 357° |
| 2026-04-22 23:02 | 27.18306 | 55.95828 | 35799 ft | 444 kts | 357° |
| 2026-04-22 23:03 | 27.24444 | 55.96591 | 35810 ft | 444 kts | 357° |
| 2026-04-22 23:03 | 27.30589 | 55.97357 | 35809 ft | 444 kts | 357° |
| 2026-04-22 23:04 | 27.36732 | 55.98122 | 35813 ft | 443 kts | 357° |
| 2026-04-22 23:04 | 27.42878 | 55.98890 | 35824 ft | 445 kts | 357° |
| 2026-04-22 23:05 | 27.48996 | 55.99654 | 35837 ft | 448 kts | 356° |
| 2026-04-22 23:05 | 27.55206 | 56.00432 | 35841 ft | 449 kts | 356° |
| 2026-04-22 23:06 | 27.61463 | 56.01215 | 35890 ft | 450 kts | 356° |
| 2026-04-22 23:06 | 27.67640 | 56.01990 | 35886 ft | 449 kts | 356° |
| 2026-04-22 23:07 | 27.73863 | 56.02772 | 35868 ft | 452 kts | 356° |
| 2026-04-22 23:07 | 27.80114 | 56.03557 | 35898 ft | 453 kts | 356° |
| 2026-04-22 23:08 | 27.86393 | 56.04347 | 35910 ft | 454 kts | 356° |
| 2026-04-22 23:08 | 27.92668 | 56.05138 | 35903 ft | 453 kts | 356° |
| 2026-04-22 23:09 | 27.98945 | 56.05929 | 35933 ft | 455 kts | 356° |
| 2026-04-22 23:09 | 28.04214 | 56.06595 | 35931 ft | 455 kts | 356° |
| 2026-04-22 23:10 | 28.10454 | 56.07383 | 35908 ft | 453 kts | 356° |
| 2026-04-22 23:10 | 28.16691 | 56.07777 | 35882 ft | 432 kts | 340° |
| 2026-04-22 23:11 | 28.22478 | 56.06257 | 35916 ft | 427 kts | 336° |
| 2026-04-22 23:11 | 28.28240 | 56.04604 | 35920 ft | 427 kts | 335° |
| 2026-04-22 23:12 | 28.33986 | 56.02897 | 35948 ft | 428 kts | 335° |
| 2026-04-22 23:12 | 28.39720 | 56.01180 | 35959 ft | 426 kts | 335° |
| 2026-04-22 23:13 | 28.45463 | 55.99463 | 35910 ft | 425 kts | 334° |
| 2026-04-22 23:13 | 28.51196 | 55.97739 | 35961 ft | 428 kts | 335° |
| 2026-04-22 23:14 | 28.56949 | 55.96010 | 35966 ft | 428 kts | 335° |
| 2026-04-22 23:14 | 28.62706 | 55.94279 | 35973 ft | 428 kts | 335° |
| 2026-04-22 23:15 | 28.68458 | 55.92546 | 35988 ft | 428 kts | 334° |
| 2026-04-22 23:15 | 28.74236 | 55.90804 | 35978 ft | 430 kts | 334° |
| 2026-04-22 23:16 | 28.80017 | 55.89059 | 35983 ft | 430 kts | 334° |
| 2026-04-22 23:16 | 28.85760 | 55.87324 | 35987 ft | 430 kts | 334° |
| 2026-04-22 23:17 | 28.91536 | 55.85575 | 35994 ft | 427 kts | 334° |
| 2026-04-22 23:17 | 28.97260 | 55.83839 | 35980 ft | 425 kts | 334° |
| 2026-04-22 23:18 | 29.02976 | 55.82104 | 35982 ft | 425 kts | 334° |
| 2026-04-22 23:18 | 29.08687 | 55.80368 | 35982 ft | 425 kts | 334° |
| 2026-04-22 23:19 | 29.14405 | 55.78628 | 35982 ft | 425 kts | 334° |
| 2026-04-22 23:19 | 29.20119 | 55.76888 | 35983 ft | 425 kts | 333° |
| 2026-04-22 23:20 | 29.25837 | 55.75144 | 35977 ft | 425 kts | 333° |
| 2026-04-22 23:20 | 29.31555 | 55.73399 | 35983 ft | 426 kts | 333° |
| 2026-04-22 23:21 | 29.37282 | 55.71648 | 35988 ft | 426 kts | 333° |
| 2026-04-22 23:21 | 29.43021 | 55.69892 | 35992 ft | 427 kts | 333° |
| 2026-04-22 23:22 | 29.48755 | 55.68135 | 35992 ft | 427 kts | 333° |
| 2026-04-22 23:22 | 29.54487 | 55.66374 | 35992 ft | 425 kts | 332° |
| 2026-04-22 23:23 | 29.57158 | 55.65123 | 36000 ft | 406 kts | 321° |
| 2026-04-22 23:23 | 29.59664 | 55.63677 | 35979 ft | 411 kts | 323° |
| 2026-04-22 23:23 | 29.64782 | 55.60779 | 36002 ft | 410 kts | 323° |
| 2026-04-22 23:24 | 29.69887 | 55.57855 | 36001 ft | 410 kts | 323° |
| 2026-04-22 23:24 | 29.74998 | 55.54920 | 36001 ft | 410 kts | 323° |
| 2026-04-22 23:25 | 29.80109 | 55.51981 | 35999 ft | 412 kts | 323° |
| 2026-04-22 23:25 | 29.85257 | 55.49018 | 36003 ft | 414 kts | 323° |
| 2026-04-22 23:26 | 29.90405 | 55.46051 | 36002 ft | 414 kts | 323° |
| 2026-04-22 23:26 | 29.95553 | 55.43081 | 36001 ft | 414 kts | 323° |
| 2026-04-22 23:27 | 30.00702 | 55.40108 | 36003 ft | 414 kts | 323° |
| 2026-04-22 23:27 | 30.05855 | 55.37130 | 36001 ft | 414 kts | 323° |
| 2026-04-22 23:28 | 30.10976 | 55.34167 | 36007 ft | 414 kts | 323° |
| 2026-04-22 23:28 | 30.16127 | 55.31185 | 36048 ft | 414 kts | 323° |
| 2026-04-22 23:29 | 30.21334 | 55.28166 | 36001 ft | 417 kts | 323° |
| 2026-04-22 23:29 | 30.26486 | 55.25176 | 35999 ft | 417 kts | 323° |
| 2026-04-22 23:30 | 30.31668 | 55.22164 | 36001 ft | 416 kts | 323° |
| 2026-04-22 23:30 | 30.36845 | 55.19153 | 36051 ft | 417 kts | 323° |
| 2026-04-22 23:31 | 30.42034 | 55.16130 | 35999 ft | 418 kts | 323° |
| 2026-04-22 23:31 | 30.47227 | 55.13102 | 36003 ft | 418 kts | 323° |
| 2026-04-22 23:32 | 30.52424 | 55.10067 | 35989 ft | 418 kts | 323° |
| 2026-04-22 23:32 | 30.57623 | 55.07028 | 35999 ft | 419 kts | 323° |
| 2026-04-22 23:33 | 30.62828 | 55.03981 | 35991 ft | 419 kts | 323° |
| 2026-04-22 23:33 | 30.68038 | 55.00928 | 35981 ft | 420 kts | 323° |
| 2026-04-22 23:34 | 30.73242 | 54.97875 | 35969 ft | 419 kts | 323° |
| 2026-04-22 23:34 | 30.78445 | 54.94809 | 35986 ft | 420 kts | 323° |
| 2026-04-22 23:35 | 30.83665 | 54.91725 | 35967 ft | 421 kts | 323° |
| 2026-04-22 23:35 | 30.88886 | 54.88637 | 35959 ft | 421 kts | 323° |
| 2026-04-22 23:36 | 30.94105 | 54.85546 | 35957 ft | 421 kts | 323° |
| 2026-04-22 23:36 | 30.99329 | 54.82449 | 35970 ft | 422 kts | 323° |
| 2026-04-22 23:37 | 31.04576 | 54.79334 | 35961 ft | 423 kts | 323° |
| 2026-04-22 23:37 | 31.09813 | 54.76221 | 35964 ft | 423 kts | 323° |
| 2026-04-22 23:38 | 31.15052 | 54.73104 | 35966 ft | 422 kts | 323° |
| 2026-04-22 23:38 | 31.20283 | 54.69987 | 35963 ft | 422 kts | 323° |
| 2026-04-22 23:39 | 31.25478 | 54.66887 | 35965 ft | 422 kts | 323° |
| 2026-04-22 23:39 | 31.30708 | 54.63763 | 35972 ft | 422 kts | 323° |
| 2026-04-22 23:40 | 31.35941 | 54.60633 | 35976 ft | 423 kts | 323° |
| 2026-04-22 23:40 | 31.41187 | 54.57491 | 35958 ft | 423 kts | 323° |
| 2026-04-22 23:41 | 31.46435 | 54.54349 | 35976 ft | 424 kts | 323° |
| 2026-04-22 23:41 | 31.51683 | 54.51204 | 35961 ft | 424 kts | 323° |
| 2026-04-22 23:42 | 31.56941 | 54.48050 | 35964 ft | 424 kts | 323° |
| 2026-04-22 23:42 | 31.62161 | 54.44915 | 35961 ft | 424 kts | 323° |
| 2026-04-22 23:43 | 31.67411 | 54.41758 | 35966 ft | 424 kts | 323° |
| 2026-04-22 23:43 | 31.72678 | 54.38587 | 35973 ft | 425 kts | 323° |
| 2026-04-22 23:44 | 31.77939 | 54.35415 | 35959 ft | 425 kts | 323° |
| 2026-04-22 23:44 | 31.83202 | 54.32238 | 35953 ft | 425 kts | 323° |
| 2026-04-22 23:45 | 31.88469 | 54.29062 | 35949 ft | 427 kts | 325° |
| 2026-04-22 23:45 | 31.91333 | 54.27922 | 35962 ft | 444 kts | 339° |
| 2026-04-22 23:45 | 31.94356 | 54.27160 | 35939 ft | 445 kts | 337° |
| 2026-04-22 23:46 | 32.00404 | 54.25578 | 35951 ft | 446 kts | 338° |
| 2026-04-22 23:46 | 32.06468 | 54.24033 | 35944 ft | 446 kts | 338° |
| 2026-04-22 23:47 | 32.12527 | 54.22492 | 35971 ft | 445 kts | 338° |
| 2026-04-22 23:47 | 32.18582 | 54.20950 | 35935 ft | 444 kts | 338° |
| 2026-04-22 23:48 | 32.24632 | 54.19407 | 35941 ft | 445 kts | 338° |
| 2026-04-22 23:48 | 32.30683 | 54.17862 | 35936 ft | 445 kts | 338° |
| 2026-04-22 23:49 | 32.36731 | 54.16315 | 35938 ft | 444 kts | 338° |
| 2026-04-22 23:49 | 32.42724 | 54.14743 | 35920 ft | 444 kts | 337° |
| 2026-04-22 23:50 | 32.48793 | 54.13144 | 35943 ft | 444 kts | 337° |
| 2026-04-22 23:50 | 32.54828 | 54.11553 | 35946 ft | 444 kts | 337° |
| 2026-04-22 23:51 | 32.60834 | 54.09968 | 35937 ft | 445 kts | 337° |
| 2026-04-22 23:51 | 32.66875 | 54.08371 | 35936 ft | 445 kts | 337° |
| 2026-04-22 23:52 | 32.72916 | 54.06772 | 35963 ft | 445 kts | 337° |
| 2026-04-22 23:52 | 32.78966 | 54.05168 | 35939 ft | 446 kts | 337° |
| 2026-04-22 23:53 | 32.85024 | 54.03566 | 35948 ft | 447 kts | 338° |
| 2026-04-22 23:53 | 32.91112 | 54.02047 | 35948 ft | 447 kts | 338° |
| 2026-04-22 23:54 | 32.97200 | 54.00519 | 35954 ft | 447 kts | 338° |
| 2026-04-22 23:54 | 33.03286 | 53.98989 | 35933 ft | 448 kts | 338° |
| 2026-04-22 23:55 | 33.09394 | 53.97451 | 35954 ft | 448 kts | 338° |
| 2026-04-22 23:55 | 33.15483 | 53.95916 | 35954 ft | 447 kts | 338° |
| 2026-04-22 23:56 | 33.21608 | 53.94491 | 35966 ft | 450 kts | 339° |
| 2026-04-22 23:56 | 33.26730 | 53.93391 | 35969 ft | 450 kts | 339° |
| 2026-04-22 23:57 | 33.32885 | 53.92054 | 35986 ft | 449 kts | 339° |
| 2026-04-22 23:57 | 33.39039 | 53.90714 | 35966 ft | 450 kts | 339° |
| 2026-04-22 23:58 | 33.45197 | 53.89371 | 35966 ft | 450 kts | 339° |
| 2026-04-22 23:58 | 33.51237 | 53.87727 | 35940 ft | 430 kts | 325° |
| 2026-04-22 23:59 | 33.53718 | 53.85925 | 35984 ft | 410 kts | 312° |
| 2026-04-22 23:59 | 33.55932 | 53.83771 | 35974 ft | 410 kts | 311° |
| 2026-04-22 23:59 | 33.60238 | 53.79308 | 35970 ft | 408 kts | 309° |
| 2026-04-23 00:00 | 33.66544 | 53.72488 | 35967 ft | 407 kts | 308° |
| 2026-04-23 00:01 | 33.70703 | 53.67942 | 35984 ft | 407 kts | 308° |
| 2026-04-23 00:01 | 33.74909 | 53.63335 | 35969 ft | 407 kts | 308° |
| 2026-04-23 00:02 | 33.79062 | 53.58779 | 35964 ft | 407 kts | 308° |
| 2026-04-23 00:02 | 33.83270 | 53.54156 | 35999 ft | 407 kts | 308° |
| 2026-04-23 00:03 | 33.87425 | 53.49587 | 35971 ft | 408 kts | 308° |
| 2026-04-23 00:03 | 33.91609 | 53.44978 | 35970 ft | 408 kts | 308° |
| 2026-04-23 00:04 | 33.95793 | 53.40363 | 35965 ft | 408 kts | 308° |
| 2026-04-23 00:04 | 33.99976 | 53.35743 | 35976 ft | 408 kts | 309° |
| 2026-04-23 00:05 | 34.04173 | 53.31100 | 35968 ft | 410 kts | 309° |
| 2026-04-23 00:05 | 34.08370 | 53.26451 | 35958 ft | 409 kts | 309° |
| 2026-04-23 00:06 | 34.12560 | 53.21804 | 35963 ft | 409 kts | 308° |
| 2026-04-23 00:06 | 34.16748 | 53.17152 | 35967 ft | 410 kts | 309° |
| 2026-04-23 00:07 | 34.20952 | 53.12476 | 35969 ft | 411 kts | 309° |
| 2026-04-23 00:07 | 34.25159 | 53.07789 | 35949 ft | 409 kts | 309° |
| 2026-04-23 00:07 | 34.27217 | 53.05496 | 35746 ft | 397 kts | 308° |
| 2026-04-23 00:08 | 34.29226 | 53.03254 | 35392 ft | 390 kts | 309° |
| 2026-04-23 00:08 | 34.31215 | 53.01033 | 34894 ft | 388 kts | 309° |
| 2026-04-23 00:08 | 34.33192 | 52.98822 | 34373 ft | 386 kts | 308° |
| 2026-04-23 00:08 | 34.35164 | 52.96618 | 33851 ft | 385 kts | 308° |
| 2026-04-23 00:09 | 34.37125 | 52.94424 | 33291 ft | 383 kts | 309° |
| 2026-04-23 00:09 | 34.39075 | 52.92241 | 32776 ft | 380 kts | 309° |
| 2026-04-23 00:09 | 34.41012 | 52.90070 | 32295 ft | 377 kts | 309° |
| 2026-04-23 00:09 | 34.42929 | 52.87922 | 31829 ft | 374 kts | 309° |
| 2026-04-23 00:10 | 34.44831 | 52.85788 | 31376 ft | 372 kts | 309° |
| 2026-04-23 00:10 | 34.46723 | 52.83663 | 30896 ft | 370 kts | 309° |
| 2026-04-23 00:10 | 34.48606 | 52.81549 | 30426 ft | 368 kts | 309° |
| 2026-04-23 00:10 | 34.50481 | 52.79441 | 29955 ft | 367 kts | 309° |
| 2026-04-23 00:11 | 34.52320 | 52.77373 | 29441 ft | 365 kts | 310° |
| 2026-04-23 00:11 | 34.54170 | 52.75292 | 28972 ft | 361 kts | 310° |
| 2026-04-23 00:11 | 34.56004 | 52.73226 | 28535 ft | 358 kts | 310° |
| 2026-04-23 00:11 | 34.57820 | 52.71180 | 28112 ft | 355 kts | 310° |
| 2026-04-23 00:12 | 34.59621 | 52.69149 | 27702 ft | 352 kts | 310° |
| 2026-04-23 00:12 | 34.61412 | 52.67127 | 27268 ft | 350 kts | 311° |
| 2026-04-23 00:12 | 34.63190 | 52.65120 | 26861 ft | 348 kts | 311° |
| 2026-04-23 00:12 | 34.64954 | 52.63127 | 26456 ft | 346 kts | 311° |
| 2026-04-23 00:13 | 34.66709 | 52.61143 | 26056 ft | 344 kts | 311° |
| 2026-04-23 00:13 | 34.68454 | 52.59170 | 25664 ft | 342 kts | 311° |
| 2026-04-23 00:13 | 34.70192 | 52.57203 | 25275 ft | 341 kts | 311° |
| 2026-04-23 00:13 | 34.71923 | 52.55243 | 24892 ft | 339 kts | 311° |
| 2026-04-23 00:14 | 34.73645 | 52.53291 | 24507 ft | 338 kts | 312° |
| 2026-04-23 00:14 | 34.75358 | 52.51350 | 24136 ft | 336 kts | 312° |
| 2026-04-23 00:14 | 34.77064 | 52.49414 | 23765 ft | 335 kts | 312° |
| 2026-04-23 00:14 | 34.78764 | 52.47486 | 23364 ft | 334 kts | 312° |
| 2026-04-23 00:15 | 34.80459 | 52.45560 | 22946 ft | 332 kts | 312° |
| 2026-04-23 00:15 | 34.82141 | 52.43649 | 22567 ft | 329 kts | 313° |
| 2026-04-23 00:15 | 34.83808 | 52.41754 | 22210 ft | 327 kts | 313° |
| 2026-04-23 00:15 | 34.85462 | 52.39874 | 21851 ft | 324 kts | 313° |
| 2026-04-23 00:16 | 34.87100 | 52.38010 | 21500 ft | 321 kts | 313° |
| 2026-04-23 00:16 | 34.88737 | 52.36146 | 21158 ft | 325 kts | 313° |
| 2026-04-23 00:16 | 34.90391 | 52.34250 | 20782 ft | 329 kts | 311° |
| 2026-04-23 00:16 | 34.91830 | 52.32092 | 20348 ft | 327 kts | 304° |
| 2026-04-23 00:17 | 34.93198 | 52.29895 | 20024 ft | 324 kts | 304° |
| 2026-04-23 00:17 | 34.94560 | 52.27718 | 19689 ft | 322 kts | 304° |
| 2026-04-23 00:17 | 34.95913 | 52.25555 | 19348 ft | 320 kts | 304° |
| 2026-04-23 00:17 | 34.97256 | 52.23408 | 19004 ft | 318 kts | 304° |
| 2026-04-23 00:18 | 34.98593 | 52.21269 | 18658 ft | 316 kts | 305° |
| 2026-04-23 00:18 | 34.99925 | 52.19136 | 18314 ft | 315 kts | 305° |
| 2026-04-23 00:18 | 35.01249 | 52.17015 | 17943 ft | 314 kts | 304° |
| 2026-04-23 00:18 | 35.02566 | 52.14905 | 17576 ft | 312 kts | 304° |
| 2026-04-23 00:19 | 35.03873 | 52.12808 | 17221 ft | 309 kts | 304° |
| 2026-04-23 00:19 | 35.05156 | 52.10751 | 16887 ft | 307 kts | 304° |
| 2026-04-23 00:19 | 35.06443 | 52.08684 | 16551 ft | 305 kts | 304° |
| 2026-04-23 00:19 | 35.07737 | 52.06606 | 16216 ft | 302 kts | 304° |
| 2026-04-23 00:20 | 35.09006 | 52.04566 | 15884 ft | 300 kts | 304° |
| 2026-04-23 00:20 | 35.10249 | 52.02568 | 15561 ft | 298 kts | 304° |
| 2026-04-23 00:20 | 35.11497 | 52.00559 | 15236 ft | 296 kts | 304° |
| 2026-04-23 00:20 | 35.12741 | 51.98555 | 14923 ft | 296 kts | 304° |
| 2026-04-23 00:21 | 35.13995 | 51.96536 | 14601 ft | 300 kts | 304° |
| 2026-04-23 00:21 | 35.15262 | 51.94493 | 14259 ft | 302 kts | 304° |
| 2026-04-23 00:21 | 35.16532 | 51.92445 | 13935 ft | 301 kts | 304° |
| 2026-04-23 00:21 | 35.17792 | 51.90412 | 13574 ft | 300 kts | 304° |
| 2026-04-23 00:22 | 35.19046 | 51.88387 | 13213 ft | 298 kts | 304° |
| 2026-04-23 00:22 | 35.20289 | 51.86379 | 12880 ft | 295 kts | 304° |
| 2026-04-23 00:22 | 35.21523 | 51.84383 | 12542 ft | 293 kts | 304° |
| 2026-04-23 00:22 | 35.22747 | 51.82405 | 12221 ft | 290 kts | 304° |
| 2026-04-23 00:23 | 35.23956 | 51.80448 | 11914 ft | 287 kts | 304° |
| 2026-04-23 00:23 | 35.25159 | 51.78500 | 11590 ft | 286 kts | 304° |
| 2026-04-23 00:23 | 35.26352 | 51.76567 | 11275 ft | 284 kts | 304° |
| 2026-04-23 00:23 | 35.27492 | 51.74610 | 10936 ft | 279 kts | 296° |
| 2026-04-23 00:24 | 35.28175 | 51.72449 | 10506 ft | 268 kts | 281° |
| 2026-04-23 00:24 | 35.28591 | 51.70246 | 10235 ft | 265 kts | 281° |
| 2026-04-23 00:24 | 35.29023 | 51.68064 | 10106 ft | 263 kts | 281° |
| 2026-04-23 00:24 | 35.29464 | 51.65887 | 9942 ft | 264 kts | 282° |
| 2026-04-23 00:25 | 35.29913 | 51.63701 | 9626 ft | 265 kts | 282° |
| 2026-04-23 00:25 | 35.30366 | 51.61512 | 9286 ft | 265 kts | 282° |
| 2026-04-23 00:25 | 35.30818 | 51.59335 | 8974 ft | 263 kts | 283° |
| 2026-04-23 00:25 | 35.31268 | 51.57171 | 8654 ft | 262 kts | 282° |
| 2026-04-23 00:26 | 35.31710 | 51.55046 | 8356 ft | 260 kts | 283° |
| 2026-04-23 00:26 | 35.32155 | 51.52903 | 8081 ft | 258 kts | 283° |
| 2026-04-23 00:26 | 35.32591 | 51.50805 | 7936 ft | 250 kts | 283° |
| 2026-04-23 00:26 | 35.33012 | 51.48775 | 7802 ft | 242 kts | 283° |
| 2026-04-23 00:27 | 35.33419 | 51.46811 | 7667 ft | 234 kts | 283° |
| 2026-04-23 00:27 | 35.33814 | 51.44908 | 7527 ft | 227 kts | 283° |
| 2026-04-23 00:27 | 35.34156 | 51.43056 | 7385 ft | 219 kts | 280° |
| 2026-04-23 00:27 | 35.34494 | 51.41246 | 7213 ft | 219 kts | 285° |
| 2026-04-23 00:28 | 35.34935 | 51.39495 | 7035 ft | 211 kts | 288° |
| 2026-04-23 00:28 | 35.35401 | 51.37816 | 6757 ft | 206 kts | 289° |
| 2026-04-23 00:28 | 35.35858 | 51.36182 | 6511 ft | 200 kts | 289° |
| 2026-04-23 00:28 | 35.36303 | 51.34588 | 6252 ft | 195 kts | 289° |
| 2026-04-23 00:29 | 35.36736 | 51.33030 | 5985 ft | 191 kts | 289° |
| 2026-04-23 00:29 | 35.37159 | 51.31510 | 5739 ft | 186 kts | 289° |
| 2026-04-23 00:29 | 35.37573 | 51.30029 | 5497 ft | 180 kts | 289° |
| 2026-04-23 00:29 | 35.37956 | 51.28650 | 5292 ft | 167 kts | 290° |
| 2026-04-23 00:30 | 35.38330 | 51.27308 | 5082 ft | 165 kts | 290° |
| 2026-04-23 00:30 | 35.38696 | 51.25992 | 4875 ft | 159 kts | 290° |
| 2026-04-23 00:30 | 35.39046 | 51.24737 | 4664 ft | 153 kts | 290° |
| 2026-04-23 00:30 | 35.39386 | 51.23515 | 4454 ft | 151 kts | 290° |
| 2026-04-23 00:31 | 35.39725 | 51.22294 | 4245 ft | 152 kts | 290° |
| 2026-04-23 00:31 | 35.40064 | 51.21069 | 4039 ft | 152 kts | 289° |
| 2026-04-23 00:31 | 35.40405 | 51.19840 | 3843 ft | 153 kts | 289° |
| 2026-04-23 00:31 | 35.40756 | 51.18608 | 3651 ft | 153 kts | 289° |
| 2026-04-23 00:32 | 35.41092 | 51.17380 | 3449 ft | 151 kts | 290° |
| 2026-04-23 00:32 | 35.41432 | 51.16158 | 3267 ft | 147 kts | 289° |
| 2026-04-23 00:32 | 35.41730 | 51.15096 | 3266 ft | 110 kts | 289° |
| 2026-04-23 00:32 | 35.41921 | 51.14414 | 3271 ft | 72 kts | 289° |
| 2026-04-23 00:33 | 35.42049 | 51.13919 | 3278 ft | 39 kts | 277° |
| 2026-04-23 00:33 | 35.42043 | 51.13714 | 3280 ft | 18 kts | 259° |
| 2026-04-23 00:33 | 35.42022 | 51.13586 | 3285 ft | 15 kts | 257° |
| 2026-04-23 00:33 | 35.41997 | 51.13473 | 3288 ft | 12 kts | 235° |
| 2026-04-23 00:34 | 35.41919 | 51.13439 | 3287 ft | 14 kts | 166° |
| 2026-04-23 00:34 | 35.41865 | 51.13543 | 3284 ft | 16 kts | 109° |
| 2026-04-23 00:34 | 35.41825 | 51.13687 | 3277 ft | 20 kts | 109° |
| 2026-04-23 00:34 | 35.41779 | 51.13853 | 3277 ft | 21 kts | 109° |
| 2026-04-23 00:35 | 35.41731 | 51.14025 | 3275 ft | 21 kts | 109° |
| 2026-04-23 00:35 | 35.41689 | 51.14178 | 3272 ft | 17 kts | 109° |
| 2026-04-23 00:35 | 35.41648 | 51.14325 | 3272 ft | 19 kts | 109° |
| 2026-04-23 00:35 | 35.41605 | 51.14474 | 3270 ft | 17 kts | 109° |
| 2026-04-23 00:36 | 35.41563 | 51.14626 | 3269 ft | 20 kts | 109° |
| 2026-04-23 00:36 | 35.41518 | 51.14789 | 3268 ft | 19 kts | 108° |
| 2026-04-23 00:36 | 35.41473 | 51.14950 | 3266 ft | 21 kts | 109° |
| 2026-04-23 00:36 | 35.41427 | 51.15116 | 3263 ft | 18 kts | 109° |
| 2026-04-23 00:37 | 35.41383 | 51.15271 | 3260 ft | 19 kts | 109° |
| 2026-04-23 00:37 | 35.41337 | 51.15399 | 3259 ft | 11 kts | 142° |
| 2026-04-23 00:37 | 35.41276 | 51.15393 | 3261 ft | 7 kts | 198° |
| 2026-04-23 00:37 | 35.41232 | 51.15376 | 3261 ft | 7 kts | 198° |
| 2026-04-23 00:38 | 35.41216 | 51.15369 | 3261 ft | 0 kts | 198° |
| 2026-04-23 00:38 | 35.41211 | 51.15367 | 3261 ft | 2 kts | 198° |
| 2026-04-23 00:38 | 35.41188 | 51.15361 | 3261 ft | 6 kts | 185° |
| 2026-04-23 00:38 | 35.41146 | 51.15399 | 3260 ft | 10 kts | 114° |
| 2026-04-23 00:39 | 35.41121 | 51.15489 | 3259 ft | 11 kts | 109° |
| 2026-04-23 00:39 | 35.41106 | 51.15543 | 3259 ft | 4 kts | 112° |
| 2026-04-23 00:39 | 35.41078 | 51.15553 | 3259 ft | 5 kts | 188° |
| 2026-04-23 00:39 | 35.41049 | 51.15527 | 3257 ft | 3 kts | 236° |
| 2026-04-23 00:40 | 35.41039 | 51.15503 | 3257 ft | 3 kts | 244° |
| 2026-04-23 00:40 | 35.41034 | 51.15492 | 3257 ft | 1 kts | 245° |
| 2026-04-23 00:40 | 35.41034 | 51.15490 | 3257 ft | 0 kts | 245° |
| 2026-04-23 00:43 | 35.39318 | 51.23760 | 4504 ft | 151 kts | 290° |
| 2026-04-23 00:44 | 35.39657 | 51.22539 | 4293 ft | 152 kts | 290° |
| 2026-04-23 00:44 | 35.40480 | 51.19567 | 3804 ft | 153 kts | 289° |
| 2026-04-23 00:44 | 35.40832 | 51.18336 | 3603 ft | 153 kts | 289° |
| 2026-04-23 00:44 | 35.41170 | 51.17109 | 3406 ft | 152 kts | 290° |
| 2026-04-23 00:45 | 35.41503 | 51.15901 | 3263 ft | 141 kts | 289° |
| 2026-04-23 00:45 | 35.41781 | 51.14914 | 3269 ft | 94 kts | 289° |
| 2026-04-23 00:45 | 35.41957 | 51.14286 | 3272 ft | 69 kts | 289° |
| 2026-04-23 00:45 | 35.40336 | 51.20098 | 3883 ft | 153 kts | 289° |
| 2026-04-23 00:46 | 35.40682 | 51.18866 | 3682 ft | 153 kts | 290° |
| 2026-04-23 00:46 | 35.41020 | 51.17633 | 3485 ft | 152 kts | 288° |
| 2026-04-23 00:46 | 35.41362 | 51.16412 | 3289 ft | 151 kts | 289° |
| 2026-04-23 00:46 | 35.41676 | 51.15290 | 3264 ft | 121 kts | 289° |
| 2026-04-23 00:47 | 35.41887 | 51.14538 | 3270 ft | 75 kts | 289° |
| 2026-04-23 00:47 | 35.42037 | 51.13992 | 3277 ft | 48 kts | 285° |
| 2026-04-23 00:47 | 35.40443 | 51.19700 | 3825 ft | 152 kts | 289° |
| 2026-04-23 00:47 | 35.40796 | 51.18469 | 3622 ft | 153 kts | 289° |
| 2026-04-23 00:48 | 35.41132 | 51.17240 | 3427 ft | 152 kts | 290° |
| 2026-04-23 00:48 | 35.41469 | 51.16023 | 3266 ft | 144 kts | 289° |
| 2026-04-23 00:48 | 35.41244 | 51.16845 | 3360 ft | 152 kts | 289° |
| 2026-04-23 00:48 | 35.41571 | 51.15660 | 3261 ft | 135 kts | 289° |
| 2026-04-23 00:49 | 35.40940 | 51.17932 | 3535 ft | 152 kts | 288° |
| 2026-04-23 00:49 | 35.41282 | 51.16707 | 3331 ft | 152 kts | 288° |